KSAN

San Diego International Airport

Airport
ICAO code
KSAN
IATA Code
SAN
Summary
ICAO Region
NAM
ICAO Territory
Location

San Diego, California

Serving
San Diego County
Elevation
17 ft
Coordinates
32° 44' 0" N , 117° 11' 26" W
KCC
Airport RE
Engineered Materials Arresting System
Airport WX
Fog
Metar
Observation
KSAN 300951Z 28004KT 9SM OVC007 20/17 A2992 RMK AO2 SLP133 T02000172
Station
San Diego, San Diego International-Lindbergh Field
Date/Time
2022-09-30 09:51:00
Wind direction
280°
Wind speed
04 kts
Lowest cloud amount
overcast
Temperature
20°C
Dew point
17.2°C
Humidity
83%
Weather condition
n/a

Description

International airport serving San Diego, California, USA.

Climatology

San Diego enjoys mild, sunny weather throughout the year. Since the San Diego area straddles areas of Mediterranean climate (Csa) to the north, and Semi-arid climate (BSh) to the south and east, the climate is often referred to as "Mediterranean" or "arid-mediterranean". Fog is common in May and June.

Runways

Designator Length Width Surface Rops
9/27 2865 61 PEM Yes/Yes

Airport map

Aerial View

SKYbrary Partners:

Safety knowledge contributed by: